createdAt,value
2023-04-26T00:00:20.742Z,94.76
2023-04-26T00:03:07.813Z,94.40
2023-04-26T00:05:55.169Z,94.69
2023-04-26T00:08:43.242Z,94.47
2023-04-26T00:11:30.248Z,94.65
2023-04-26T00:14:17.347Z,94.28
2023-04-26T00:17:05.883Z,94.64
2023-04-26T00:19:52.975Z,95.53
2023-04-26T00:22:40.795Z,94.11
2023-04-26T00:25:28.010Z,94.87
2023-04-26T00:28:14.976Z,94.59
2023-04-26T00:31:01.880Z,94.92
2023-04-26T00:33:48.864Z,93.00
2023-04-26T00:36:35.808Z,94.29
2023-04-26T00:39:22.732Z,93.98
2023-04-26T00:42:09.662Z,93.79
2023-04-26T00:44:57.697Z,93.48
2023-04-26T00:47:44.850Z,92.58
2023-04-26T00:50:32.648Z,94.35
2023-04-26T00:53:20.754Z,94.12
2023-04-26T00:56:09.828Z,93.64
2023-04-26T00:58:56.876Z,94.42
2023-04-26T01:01:43.987Z,93.83
2023-04-26T01:04:31.336Z,94.75
2023-04-26T01:07:19.877Z,94.36
2023-04-26T01:10:09.576Z,95.25
2023-04-26T01:12:57.921Z,94.62
2023-04-26T01:15:49.016Z,94.36
2023-04-26T01:18:36.220Z,93.27
2023-04-26T01:21:25.078Z,94.92
2023-04-26T01:24:13.505Z,94.47
2023-04-26T01:27:00.548Z,93.48
2023-04-26T01:29:47.668Z,93.98
2023-04-26T01:32:35.097Z,94.67
2023-04-26T01:35:22.061Z,94.19
2023-04-26T01:38:08.988Z,93.63
2023-04-26T01:40:55.892Z,93.91
2023-04-26T01:43:42.815Z,93.75
2023-04-26T01:46:29.797Z,94.47
2023-04-26T01:49:18.965Z,93.29
2023-04-26T01:52:05.886Z,93.99
2023-04-26T01:54:53.015Z,93.69
2023-04-26T01:57:39.933Z,94.30
2023-04-26T02:00:28.936Z,93.92
2023-04-26T02:03:16.696Z,94.42
2023-04-26T02:06:04.204Z,94.43
2023-04-26T02:08:52.423Z,94.24
2023-04-26T02:11:39.481Z,94.44
2023-04-26T02:14:26.738Z,96.02
2023-04-26T02:17:14.675Z,96.29
2023-04-26T02:20:01.597Z,94.82
2023-04-26T02:22:48.515Z,94.51
2023-04-26T02:25:36.029Z,94.37
2023-04-26T02:28:23.007Z,94.73
2023-04-26T02:31:10.068Z,95.10
2023-04-26T02:33:56.974Z,94.78
2023-04-26T02:36:44.319Z,94.28
2023-04-26T02:39:31.596Z,94.09
2023-04-26T02:42:18.880Z,95.21
2023-04-26T02:45:07.134Z,95.10
2023-04-26T02:47:54.211Z,95.45
2023-04-26T02:50:41.462Z,96.95
2023-04-26T02:53:28.667Z,97.15
2023-04-26T02:56:16.190Z,95.02
2023-04-26T02:59:03.158Z,93.79
2023-04-26T03:01:50.243Z,94.40
2023-04-26T03:04:37.896Z,92.49
2023-04-26T03:07:24.828Z,92.16
2023-04-26T03:10:12.399Z,92.35
2023-04-26T03:12:59.281Z,92.76
2023-04-26T03:15:46.695Z,92.73
2023-04-26T03:18:35.026Z,92.03
2023-04-26T03:21:21.978Z,92.68
2023-04-26T03:24:08.921Z,91.74
2023-04-26T03:26:55.865Z,93.57
2023-04-26T03:29:44.107Z,92.47
2023-04-26T03:32:31.785Z,93.64
2023-04-26T03:35:18.714Z,92.59
2023-04-26T03:38:05.783Z,91.83
2023-04-26T03:40:52.711Z,91.71
2023-04-26T03:43:39.655Z,92.36
2023-04-26T03:46:26.589Z,92.30
2023-04-26T03:49:13.606Z,93.45
2023-04-26T03:52:00.597Z,93.04
2023-04-26T03:54:49.820Z,92.85
2023-04-26T03:57:36.667Z,93.70
2023-04-26T04:00:23.760Z,93.52
2023-04-26T04:03:10.932Z,93.96
2023-04-26T04:05:58.089Z,93.70
2023-04-26T04:08:45.019Z,94.14
2023-04-26T04:11:33.027Z,94.12
2023-04-26T04:14:19.935Z,94.44
2023-04-26T04:17:07.571Z,93.64
2023-04-26T04:19:54.526Z,95.05
2023-04-26T04:22:41.556Z,94.92
2023-04-26T04:25:28.423Z,94.78
2023-04-26T04:28:15.335Z,95.03
2023-04-26T04:31:02.279Z,94.78
2023-04-26T04:33:49.250Z,93.56
2023-04-26T04:36:36.136Z,94.73
2023-04-26T04:39:23.064Z,94.56
2023-04-26T04:42:10.364Z,93.43
2023-04-26T04:44:59.634Z,94.32
2023-04-26T04:47:46.623Z,93.55
2023-04-26T04:50:33.910Z,93.99
2023-04-26T04:53:20.885Z,94.91
2023-04-26T04:56:08.824Z,94.53
2023-04-26T04:58:56.230Z,93.63
2023-04-26T05:01:43.268Z,92.77
2023-04-26T05:04:31.936Z,91.37
2023-04-26T05:07:19.135Z,91.25
2023-04-26T05:10:07.008Z,92.06
2023-04-26T05:12:54.008Z,92.20
2023-04-26T05:15:40.921Z,92.23
2023-04-26T05:18:28.770Z,92.63
2023-04-26T05:21:15.936Z,92.26
2023-04-26T05:24:03.342Z,92.10
2023-04-26T05:26:50.303Z,92.73
2023-04-26T05:29:37.283Z,91.18
2023-04-26T05:32:24.308Z,89.64
2023-04-26T05:35:11.309Z,90.45
2023-04-26T05:37:58.291Z,91.52
2023-04-26T05:40:45.420Z,91.52
2023-04-26T05:43:32.376Z,90.75
2023-04-26T05:46:19.371Z,90.19
2023-04-26T05:49:06.555Z,89.34
2023-04-26T05:51:53.713Z,89.40
2023-04-26T05:54:40.768Z,89.83
2023-04-26T05:57:27.842Z,90.24
2023-04-26T06:00:15.633Z,89.73
2023-04-26T06:03:02.928Z,89.68
2023-04-26T06:05:49.967Z,89.91
2023-04-26T06:08:37.319Z,90.09
2023-04-26T06:11:24.294Z,89.40
2023-04-26T06:14:23.192Z,88.92
2023-04-26T06:17:17.184Z,87.59
2023-04-26T06:20:07.953Z,89.00
2023-04-26T06:22:54.896Z,86.72
2023-04-26T06:25:44.873Z,86.43
2023-04-26T06:28:32.202Z,85.76
2023-04-26T06:31:19.966Z,85.66
2023-04-26T06:34:07.947Z,85.84
2023-04-26T06:36:55.418Z,85.70
2023-04-26T06:39:42.338Z,84.64
2023-04-26T06:42:29.309Z,84.74
2023-04-26T06:45:17.598Z,86.10
2023-04-26T06:48:05.283Z,85.84
2023-04-26T06:50:52.294Z,83.50
2023-04-26T06:53:39.243Z,85.15
2023-04-26T06:56:26.223Z,83.42
2023-04-26T06:59:13.203Z,83.89
2023-04-26T07:02:01.021Z,84.26
2023-04-26T07:04:48.228Z,85.47
2023-04-26T07:07:35.768Z,86.54
2023-04-26T07:10:23.288Z,85.84
2023-04-26T07:13:10.243Z,84.13
2023-04-26T07:15:57.249Z,84.16
2023-04-26T07:18:44.211Z,84.71
2023-04-26T07:21:31.216Z,85.59
2023-04-26T07:24:18.173Z,84.61
2023-04-26T07:27:05.114Z,84.91
2023-04-26T07:29:56.120Z,84.57
2023-04-26T07:32:43.185Z,84.91
2023-04-26T07:35:30.206Z,83.52
2023-04-26T07:38:19.623Z,84.56
2023-04-26T07:41:06.563Z,84.34
2023-04-26T07:43:53.824Z,85.60
2023-04-26T07:46:40.977Z,84.00
2023-04-26T07:49:27.987Z,84.13
2023-04-26T07:52:14.925Z,84.08
2023-04-26T07:55:01.875Z,83.29
2023-04-26T07:57:48.899Z,80.27
2023-04-26T08:00:38.762Z,79.32
2023-04-26T08:03:27.721Z,79.35
2023-04-26T08:06:15.037Z,79.04
2023-04-26T08:09:01.968Z,79.90
2023-04-26T08:11:48.897Z,79.36
2023-04-26T08:14:35.839Z,78.76
2023-04-26T08:17:22.800Z,80.40
2023-04-26T08:20:10.286Z,80.58
2023-04-26T08:22:57.355Z,79.65
2023-04-26T08:25:45.505Z,79.32
2023-04-26T08:28:35.788Z,78.68
2023-04-26T08:31:23.051Z,75.68
2023-04-26T08:34:11.403Z,77.01
2023-04-26T08:36:58.318Z,78.81
2023-04-26T08:39:45.363Z,80.68
2023-04-26T08:42:33.683Z,80.57
2023-04-26T08:45:21.711Z,81.22
2023-04-26T08:48:13.422Z,81.06
2023-04-26T08:51:02.037Z,79.75
2023-04-26T08:53:53.111Z,79.24
2023-04-26T08:56:43.257Z,77.68
2023-04-26T08:59:31.250Z,78.28
2023-04-26T09:02:22.758Z,79.42
2023-04-26T09:05:11.033Z,79.57
2023-04-26T09:08:02.077Z,80.26
2023-04-26T09:10:49.085Z,79.49
2023-04-26T09:13:36.031Z,79.98
2023-04-26T09:16:38.353Z,79.67
2023-04-26T09:19:39.384Z,80.84
2023-04-26T09:22:32.978Z,81.87
2023-04-26T09:25:29.329Z,81.35
2023-04-26T09:28:22.372Z,81.17
2023-04-26T09:31:09.579Z,79.50
2023-04-26T09:34:02.854Z,79.46
2023-04-26T09:36:57.151Z,78.26
2023-04-26T09:39:44.353Z,79.39
2023-04-26T09:42:35.738Z,78.30
2023-04-26T09:45:22.703Z,78.48
2023-04-26T09:48:42.110Z,78.04
2023-04-26T09:51:29.032Z,78.86
2023-04-26T09:54:15.986Z,77.36
2023-04-26T09:57:03.130Z,78.21
2023-04-26T09:59:55.031Z,74.83
2023-04-26T10:02:43.184Z,75.16
2023-04-26T10:05:33.946Z,72.15
2023-04-26T10:08:21.130Z,72.02
2023-04-26T10:11:09.801Z,72.64
2023-04-26T10:13:56.906Z,73.19
2023-04-26T10:16:45.631Z,71.60
2023-04-26T10:19:35.971Z,73.50
2023-04-26T10:22:37.419Z,72.46
2023-04-26T10:25:35.065Z,70.16
2023-04-26T10:29:01.403Z,71.76
2023-04-26T10:32:22.054Z,72.23
2023-04-26T10:35:13.886Z,74.16
2023-04-26T10:38:10.447Z,73.06
2023-04-26T10:41:33.790Z,69.84
2023-04-26T10:44:45.443Z,69.15
2023-04-26T10:47:36.066Z,68.83
2023-04-26T10:50:23.081Z,64.95
2023-04-26T10:53:10.206Z,66.14
2023-04-26T10:55:57.319Z,66.10
2023-04-26T10:58:46.702Z,62.45
2023-04-26T11:01:33.878Z,61.35
2023-04-26T11:04:21.395Z,63.39
2023-04-26T11:07:08.393Z,62.97
2023-04-26T11:09:55.459Z,62.86
2023-04-26T11:12:42.600Z,62.33
2023-04-26T11:15:33.081Z,62.10
2023-04-26T11:18:21.281Z,62.20
2023-04-26T11:21:09.201Z,62.29
2023-04-26T11:23:56.284Z,61.94
2023-04-26T11:26:51.400Z,60.74
2023-04-26T11:29:38.728Z,61.19
2023-04-26T11:32:26.820Z,62.86
2023-04-26T11:35:15.548Z,61.57
2023-04-26T11:38:05.548Z,61.79
2023-04-26T11:40:58.530Z,62.91
2023-04-26T11:43:45.556Z,61.00
2023-04-26T11:46:32.570Z,61.11
2023-04-26T11:49:20.280Z,61.85
2023-04-26T11:52:08.839Z,64.31
2023-04-26T11:55:04.579Z,66.40
2023-04-26T11:57:51.668Z,63.81
2023-04-26T12:00:59.173Z,62.97
2023-04-26T12:03:50.600Z,63.50
2023-04-26T12:06:46.359Z,65.93
2023-04-26T12:09:33.319Z,68.86
2023-04-26T12:12:23.607Z,67.59
2023-04-26T12:15:13.845Z,67.87
2023-04-26T12:18:10.511Z,67.33
2023-04-26T12:21:01.884Z,69.93
2023-04-26T12:23:49.181Z,66.60
2023-04-26T12:26:45.343Z,67.21
2023-04-26T12:29:33.040Z,66.28
2023-04-26T12:32:22.442Z,67.68
2023-04-26T12:35:09.789Z,67.04
2023-04-26T12:37:57.263Z,68.09
2023-04-26T12:40:47.348Z,65.76
2023-04-26T12:43:34.326Z,66.13
2023-04-26T12:46:21.621Z,66.73
2023-04-26T12:49:08.594Z,65.96
2023-04-26T12:51:55.607Z,64.54
2023-04-26T12:54:42.562Z,65.59
2023-04-26T12:57:29.546Z,65.12
2023-04-26T13:00:17.968Z,64.50
2023-04-26T13:03:05.052Z,63.99
2023-04-26T13:05:52.435Z,62.69
2023-04-26T13:08:39.488Z,62.24
2023-04-26T13:11:26.451Z,62.35
2023-04-26T13:14:13.473Z,61.00
2023-04-26T13:17:00.527Z,63.99
2023-04-26T13:19:47.502Z,63.39
2023-04-26T13:22:34.850Z,66.44
2023-04-26T13:25:22.660Z,61.64
2023-04-26T13:28:09.612Z,63.56
2023-04-26T13:30:56.674Z,64.12
2023-04-26T13:33:43.733Z,61.85
2023-04-26T13:36:30.702Z,60.79
2023-04-26T13:39:17.693Z,59.66
2023-04-26T13:42:05.740Z,60.03
2023-04-26T13:44:52.778Z,59.12
2023-04-26T13:47:39.820Z,57.42
2023-04-26T13:50:27.006Z,57.04
2023-04-26T13:53:13.908Z,57.21
2023-04-26T13:56:00.844Z,56.43
2023-04-26T13:58:48.737Z,60.39
2023-04-26T14:01:40.425Z,59.67
2023-04-26T14:04:27.788Z,59.11
2023-04-26T14:07:14.903Z,60.00
2023-04-26T14:10:01.907Z,59.15
2023-04-26T14:12:48.822Z,59.26
2023-04-26T14:15:36.239Z,58.15
2023-04-26T14:18:23.218Z,59.81
2023-04-26T14:21:10.254Z,60.75
2023-04-26T14:23:57.838Z,60.53
2023-04-26T14:26:44.796Z,60.09
2023-04-26T14:29:31.695Z,62.41
2023-04-26T14:32:18.659Z,61.74
2023-04-26T14:35:06.273Z,60.27
2023-04-26T14:37:53.185Z,59.08
2023-04-26T14:40:40.589Z,60.34
2023-04-26T14:43:27.624Z,58.97
2023-04-26T14:46:15.031Z,59.51
2023-04-26T14:49:01.997Z,58.92
2023-04-26T14:51:51.263Z,58.32
2023-04-26T14:54:40.044Z,59.27
2023-04-26T14:57:27.071Z,60.73
2023-04-26T15:00:16.857Z,59.03
2023-04-26T15:03:04.559Z,61.85
2023-04-26T15:05:51.751Z,57.38
2023-04-26T15:08:38.811Z,59.31
2023-04-26T15:11:25.937Z,58.94
2023-04-26T15:14:13.066Z,57.83
2023-04-26T15:17:00.414Z,57.65
2023-04-26T15:19:48.344Z,59.82
2023-04-26T15:22:37.998Z,55.29
2023-04-26T15:25:25.792Z,58.27
2023-04-26T15:28:12.800Z,56.03
2023-04-26T15:31:09.507Z,55.99
2023-04-26T15:33:56.879Z,55.58
2023-04-26T15:36:43.776Z,58.06
2023-04-26T15:39:30.736Z,57.01
2023-04-26T15:42:17.688Z,55.62
2023-04-26T15:45:05.227Z,58.15
2023-04-26T15:47:52.099Z,58.28
2023-04-26T15:50:39.065Z,57.79
2023-04-26T15:53:26.070Z,59.27
2023-04-26T15:56:19.334Z,57.90
2023-04-26T15:59:06.225Z,56.11
2023-04-26T16:01:53.309Z,60.10
2023-04-26T16:04:40.641Z,58.54
2023-04-26T16:07:27.900Z,57.49
2023-04-26T16:10:14.818Z,55.29
2023-04-26T16:13:01.769Z,56.56
2023-04-26T16:15:48.798Z,57.21
2023-04-26T16:18:35.893Z,56.36
2023-04-26T16:21:22.883Z,55.55
2023-04-26T16:24:11.547Z,56.68
2023-04-26T16:26:58.717Z,60.85
2023-04-26T16:29:47.524Z,60.03
2023-04-26T16:32:34.607Z,62.61
2023-04-26T16:35:21.616Z,58.37
2023-04-26T16:38:08.763Z,57.66
2023-04-26T16:40:58.022Z,57.15
2023-04-26T16:43:45.953Z,58.23
2023-04-26T16:46:33.049Z,59.86
2023-04-26T16:49:20.023Z,57.56
2023-04-26T16:52:08.475Z,55.94
2023-04-26T16:54:55.595Z,56.30
2023-04-26T16:57:42.507Z,60.02
2023-04-26T17:00:29.433Z,56.99
2023-04-26T17:03:16.931Z,58.43
2023-04-26T17:06:06.650Z,59.64
2023-04-26T17:08:53.622Z,61.20
2023-04-26T17:11:43.535Z,59.91
2023-04-26T17:14:31.733Z,61.19
2023-04-26T17:17:18.571Z,61.51
2023-04-26T17:20:06.794Z,63.35
2023-04-26T17:22:53.772Z,61.10
2023-04-26T17:25:40.746Z,61.97
2023-04-26T17:28:27.838Z,59.61
2023-04-26T17:31:14.788Z,59.15
2023-04-26T17:34:04.065Z,60.53
2023-04-26T17:36:52.974Z,61.01
2023-04-26T17:39:39.914Z,61.05
2023-04-26T17:42:28.657Z,61.39
2023-04-26T17:45:15.747Z,59.04
2023-04-26T17:48:03.135Z,59.80
2023-04-26T17:50:51.176Z,62.60
2023-04-26T17:53:39.008Z,64.16
2023-04-26T17:56:25.861Z,62.51
2023-04-26T17:59:12.799Z,63.28
2023-04-26T18:01:59.793Z,60.07
2023-04-26T18:04:47.316Z,59.73
2023-04-26T18:07:34.576Z,60.25
2023-04-26T18:10:21.977Z,61.14
2023-04-26T18:13:11.042Z,62.77
2023-04-26T18:15:58.057Z,64.19
2023-04-26T18:18:45.026Z,62.32
2023-04-26T18:21:31.986Z,61.83
2023-04-26T18:24:19.647Z,63.59
2023-04-26T18:27:07.206Z,62.64
2023-04-26T18:29:54.075Z,63.20
2023-04-26T18:32:41.320Z,63.59
2023-04-26T18:35:28.358Z,64.11
2023-04-26T18:38:15.388Z,67.81
2023-04-26T18:41:02.278Z,67.94
2023-04-26T18:43:49.412Z,67.76
2023-04-26T18:46:36.762Z,66.69
2023-04-26T18:49:24.041Z,67.07
2023-04-26T18:52:11.036Z,66.28
2023-04-26T18:54:58.074Z,66.76
2023-04-26T18:57:44.989Z,66.59
2023-04-26T19:00:32.521Z,66.93
2023-04-26T19:03:20.128Z,65.53
2023-04-26T19:06:09.173Z,65.88
2023-04-26T19:08:56.361Z,65.67
2023-04-26T19:11:43.315Z,65.27
2023-04-26T19:14:30.505Z,66.25
2023-04-26T19:17:17.463Z,64.81
2023-04-26T19:20:10.236Z,65.51
2023-04-26T19:22:57.247Z,67.59
2023-04-26T19:25:44.144Z,69.62
2023-04-26T19:28:31.448Z,68.88
2023-04-26T19:31:18.364Z,69.56
2023-04-26T19:34:05.259Z,69.13
2023-04-26T19:36:52.408Z,70.16
2023-04-26T19:39:39.348Z,71.41
2023-04-26T19:42:26.722Z,70.32
2023-04-26T19:45:13.766Z,71.95
2023-04-26T19:48:00.755Z,71.38
2023-04-26T19:50:47.756Z,70.98
2023-04-26T19:53:35.307Z,71.06
2023-04-26T19:56:23.200Z,71.97
2023-04-26T19:59:10.272Z,71.00
2023-04-26T20:01:57.247Z,72.13
2023-04-26T20:04:44.674Z,72.80
2023-04-26T20:07:31.728Z,71.93
2023-04-26T20:10:18.822Z,72.85
2023-04-26T20:13:05.923Z,72.18
2023-04-26T20:15:52.754Z,72.25
2023-04-26T20:18:39.732Z,73.29
2023-04-26T20:21:29.041Z,74.40
2023-04-26T20:24:16.432Z,74.27
2023-04-26T20:27:03.516Z,75.01
2023-04-26T20:29:50.529Z,75.46
2023-04-26T20:32:37.431Z,75.79
2023-04-26T20:35:24.344Z,74.71
2023-04-26T20:38:11.656Z,74.33
2023-04-26T20:40:58.559Z,74.77
2023-04-26T20:43:45.495Z,74.92
2023-04-26T20:46:32.610Z,75.69
2023-04-26T20:49:19.953Z,76.63
2023-04-26T20:52:07.584Z,76.54
2023-04-26T20:54:57.162Z,76.82
2023-04-26T20:57:44.411Z,76.81
2023-04-26T21:00:31.317Z,76.93
2023-04-26T21:03:18.773Z,77.32
2023-04-26T21:06:06.074Z,77.25
2023-04-26T21:08:53.094Z,77.52
2023-04-26T21:11:40.035Z,77.63
2023-04-26T21:14:26.950Z,78.96
2023-04-26T21:17:14.625Z,79.23
2023-04-26T21:20:01.516Z,78.65
2023-04-26T21:22:48.448Z,79.01
2023-04-26T21:25:35.674Z,79.79
2023-04-26T21:28:22.872Z,79.45
2023-04-26T21:31:10.006Z,79.24
2023-04-26T21:33:56.969Z,79.17
2023-04-26T21:36:44.032Z,79.32
2023-04-26T21:39:31.008Z,78.47
2023-04-26T21:42:18.061Z,79.01
2023-04-26T21:45:05.915Z,79.22
2023-04-26T21:47:52.876Z,78.97
2023-04-26T21:50:39.775Z,79.03
2023-04-26T21:53:27.202Z,79.36
2023-04-26T21:56:14.766Z,80.18
2023-04-26T21:59:02.604Z,79.62
2023-04-26T22:01:49.559Z,80.68
2023-04-26T22:04:36.713Z,80.39
2023-04-26T22:07:23.764Z,80.50
2023-04-26T22:10:11.088Z,80.79
2023-04-26T22:12:58.054Z,80.86
2023-04-26T22:15:45.000Z,80.61
2023-04-26T22:18:32.440Z,80.99
2023-04-26T22:21:19.402Z,81.58
2023-04-26T22:24:06.967Z,80.50
2023-04-26T22:26:53.904Z,80.13
2023-04-26T22:29:40.817Z,79.37
2023-04-26T22:32:27.880Z,79.86
2023-04-26T22:35:14.801Z,80.44
2023-04-26T22:38:01.784Z,80.82
2023-04-26T22:40:48.727Z,79.80
2023-04-26T22:43:36.429Z,82.24
2023-04-26T22:46:23.492Z,83.14
2023-04-26T22:49:11.087Z,82.90
2023-04-26T22:52:07.738Z,81.55
2023-04-26T22:54:59.917Z,82.58
2023-04-26T22:57:47.065Z,82.94
2023-04-26T23:00:33.964Z,84.74
2023-04-26T23:03:21.121Z,83.69
2023-04-26T23:06:08.481Z,82.10
2023-04-26T23:08:55.664Z,81.86
2023-04-26T23:11:42.770Z,82.09
2023-04-26T23:14:30.377Z,82.88
2023-04-26T23:17:20.362Z,81.61
2023-04-26T23:20:12.281Z,82.68
2023-04-26T23:22:59.389Z,82.29
2023-04-26T23:25:46.819Z,81.75
2023-04-26T23:28:33.763Z,81.58
2023-04-26T23:31:20.952Z,79.12
2023-04-26T23:34:08.359Z,78.46
2023-04-26T23:36:55.277Z,81.04
2023-04-26T23:39:42.916Z,81.43
2023-04-26T23:42:29.821Z,82.15
2023-04-26T23:45:16.966Z,82.82
2023-04-26T23:48:04.176Z,82.56
2023-04-26T23:50:51.162Z,83.31
2023-04-26T23:53:39.674Z,82.50
2023-04-26T23:56:26.708Z,82.32
2023-04-26T23:59:14.274Z,81.99
